sensor_id;sensor_type;location;lat;lon;timestamp;temperature;humidity
10192;DHT22;17580;50.850;4.504;2022-11-04T00:01:23;10.00;99.90
10192;DHT22;17580;50.850;4.504;2022-11-04T00:03:51;10.00;99.90
10192;DHT22;17580;50.850;4.504;2022-11-04T00:06:20;9.90;99.90
10192;DHT22;17580;50.850;4.504;2022-11-04T00:08:48;10.00;99.90
10192;DHT22;17580;50.850;4.504;2022-11-04T00:11:15;9.90;99.90
10192;DHT22;17580;50.850;4.504;2022-11-04T00:13:59;9.90;99.90
10192;DHT22;17580;50.850;4.504;2022-11-04T00:16:26;9.90;99.90
10192;DHT22;17580;50.850;4.504;2022-11-04T00:19:11;9.80;99.90
10192;DHT22;17580;50.850;4.504;2022-11-04T00:21:39;9.80;99.90
10192;DHT22;17580;50.850;4.504;2022-11-04T00:24:24;9.80;99.90
10192;DHT22;17580;50.850;4.504;2022-11-04T00:27:11;9.80;99.90
10192;DHT22;17580;50.850;4.504;2022-11-04T00:30:06;9.80;99.90
10192;DHT22;17580;50.850;4.504;2022-11-04T00:32:34;9.80;99.90
10192;DHT22;17580;50.850;4.504;2022-11-04T00:35:19;9.80;99.90
10192;DHT22;17580;50.850;4.504;2022-11-04T00:37:48;9.80;99.90
10192;DHT22;17580;50.850;4.504;2022-11-04T00:40:15;9.80;99.90
10192;DHT22;17580;50.850;4.504;2022-11-04T00:42:43;9.70;99.90
10192;DHT22;17580;50.850;4.504;2022-11-04T00:45:11;9.70;99.90
10192;DHT22;17580;50.850;4.504;2022-11-04T00:47:38;9.80;99.90
10192;DHT22;17580;50.850;4.504;2022-11-04T00:50:06;9.80;99.90
10192;DHT22;17580;50.850;4.504;2022-11-04T00:52:33;9.90;99.90
10192;DHT22;17580;50.850;4.504;2022-11-04T00:55:02;9.80;99.90
10192;DHT22;17580;50.850;4.504;2022-11-04T00:57:29;9.90;99.90
10192;DHT22;17580;50.850;4.504;2022-11-04T00:59:56;9.90;99.90
10192;DHT22;17580;50.850;4.504;2022-11-04T01:02:24;10.00;99.90
10192;DHT22;17580;50.850;4.504;2022-11-04T01:04:51;10.00;99.90
10192;DHT22;17580;50.850;4.504;2022-11-04T01:07:19;10.00;99.90
10192;DHT22;17580;50.850;4.504;2022-11-04T01:09:47;10.00;99.90
10192;DHT22;17580;50.850;4.504;2022-11-04T01:12:15;9.90;99.90
10192;DHT22;17580;50.850;4.504;2022-11-04T01:14:42;10.00;99.90
10192;DHT22;17580;50.850;4.504;2022-11-04T01:17:09;10.10;99.90
10192;DHT22;17580;50.850;4.504;2022-11-04T01:19:36;10.10;99.90
10192;DHT22;17580;50.850;4.504;2022-11-04T01:22:03;10.00;99.90
10192;DHT22;17580;50.850;4.504;2022-11-04T01:24:30;10.10;99.90
10192;DHT22;17580;50.850;4.504;2022-11-04T01:26:57;10.10;99.90
10192;DHT22;17580;50.850;4.504;2022-11-04T01:29:26;10.00;99.90
10192;DHT22;17580;50.850;4.504;2022-11-04T01:31:53;9.90;99.90
10192;DHT22;17580;50.850;4.504;2022-11-04T01:34:20;9.90;99.90
10192;DHT22;17580;50.850;4.504;2022-11-04T01:36:46;9.90;99.90
10192;DHT22;17580;50.850;4.504;2022-11-04T01:39:13;9.80;99.90
10192;DHT22;17580;50.850;4.504;2022-11-04T01:41:40;9.90;99.90
10192;DHT22;17580;50.850;4.504;2022-11-04T01:44:47;9.80;99.90
10192;DHT22;17580;50.850;4.504;2022-11-04T01:47:17;9.80;99.90
10192;DHT22;17580;50.850;4.504;2022-11-04T01:49:48;9.70;99.90
10192;DHT22;17580;50.850;4.504;2022-11-04T01:52:18;9.70;99.90
10192;DHT22;17580;50.850;4.504;2022-11-04T01:54:47;9.60;99.90
10192;DHT22;17580;50.850;4.504;2022-11-04T01:57:18;9.70;99.90
10192;DHT22;17580;50.850;4.504;2022-11-04T01:59:47;9.70;99.90
10192;DHT22;17580;50.850;4.504;2022-11-04T02:02:14;9.70;99.90
10192;DHT22;17580;50.850;4.504;2022-11-04T02:04:42;9.60;99.90
10192;DHT22;17580;50.850;4.504;2022-11-04T02:07:10;9.60;99.90
10192;DHT22;17580;50.850;4.504;2022-11-04T02:09:39;9.50;99.90
10192;DHT22;17580;50.850;4.504;2022-11-04T02:12:06;9.60;99.90
10192;DHT22;17580;50.850;4.504;2022-11-04T02:14:53;9.50;99.90
10192;DHT22;17580;50.850;4.504;2022-11-04T02:17:46;9.50;99.90
10192;DHT22;17580;50.850;4.504;2022-11-04T02:20:25;9.50;99.90
10192;DHT22;17580;50.850;4.504;2022-11-04T02:23:19;9.50;99.90
10192;DHT22;17580;50.850;4.504;2022-11-04T02:26:29;9.50;99.90
10192;DHT22;17580;50.850;4.504;2022-11-04T02:29:33;9.40;99.90
10192;DHT22;17580;50.850;4.504;2022-11-04T02:32:10;9.40;99.90
10192;DHT22;17580;50.850;4.504;2022-11-04T02:34:46;9.40;99.90
10192;DHT22;17580;50.850;4.504;2022-11-04T02:37:24;9.40;99.90
10192;DHT22;17580;50.850;4.504;2022-11-04T02:40:00;9.40;99.90
10192;DHT22;17580;50.850;4.504;2022-11-04T02:42:36;9.40;99.90
10192;DHT22;17580;50.850;4.504;2022-11-04T02:45:13;9.50;99.90
10192;DHT22;17580;50.850;4.504;2022-11-04T02:47:44;9.60;99.90
10192;DHT22;17580;50.850;4.504;2022-11-04T02:50:19;9.70;99.90
10192;DHT22;17580;50.850;4.504;2022-11-04T02:52:54;9.60;99.90
10192;DHT22;17580;50.850;4.504;2022-11-04T02:55:25;9.70;99.90
10192;DHT22;17580;50.850;4.504;2022-11-04T02:57:55;9.70;99.90
10192;DHT22;17580;50.850;4.504;2022-11-04T03:00:27;9.70;99.90
10192;DHT22;17580;50.850;4.504;2022-11-04T03:02:58;9.70;99.90
10192;DHT22;17580;50.850;4.504;2022-11-04T03:05:27;9.80;99.90
10192;DHT22;17580;50.850;4.504;2022-11-04T03:07:59;9.80;99.90
10192;DHT22;17580;50.850;4.504;2022-11-04T03:10:31;9.80;99.90
10192;DHT22;17580;50.850;4.504;2022-11-04T03:13:03;9.80;99.90
10192;DHT22;17580;50.850;4.504;2022-11-04T03:15:33;9.90;99.90
10192;DHT22;17580;50.850;4.504;2022-11-04T03:18:11;9.90;99.90
10192;DHT22;17580;50.850;4.504;2022-11-04T03:20:42;9.90;99.90
10192;DHT22;17580;50.850;4.504;2022-11-04T03:23:11;9.90;99.90
10192;DHT22;17580;50.850;4.504;2022-11-04T03:25:43;10.00;99.90
10192;DHT22;17580;50.850;4.504;2022-11-04T03:28:23;10.00;99.90
10192;DHT22;17580;50.850;4.504;2022-11-04T03:30:57;10.00;99.90
10192;DHT22;17580;50.850;4.504;2022-11-04T03:33:32;9.90;99.90
10192;DHT22;17580;50.850;4.504;2022-11-04T03:36:03;9.80;99.90
10192;DHT22;17580;50.850;4.504;2022-11-04T03:38:30;9.80;99.90
10192;DHT22;17580;50.850;4.504;2022-11-04T03:40:58;9.80;99.90
10192;DHT22;17580;50.850;4.504;2022-11-04T03:43:28;9.80;99.90
10192;DHT22;17580;50.850;4.504;2022-11-04T03:45:57;9.80;99.90
10192;DHT22;17580;50.850;4.504;2022-11-04T03:48:24;9.90;99.90
10192;DHT22;17580;50.850;4.504;2022-11-04T03:50:51;10.00;99.90
10192;DHT22;17580;50.850;4.504;2022-11-04T03:53:20;10.00;99.90
10192;DHT22;17580;50.850;4.504;2022-11-04T03:56:00;10.00;99.90
10192;DHT22;17580;50.850;4.504;2022-11-04T03:58:36;10.00;99.90
10192;DHT22;17580;50.850;4.504;2022-11-04T04:01:17;10.10;99.90
10192;DHT22;17580;50.850;4.504;2022-11-04T04:03:53;10.10;99.90
10192;DHT22;17580;50.850;4.504;2022-11-04T04:06:25;10.00;99.90
10192;DHT22;17580;50.850;4.504;2022-11-04T04:08:56;10.10;99.90
10192;DHT22;17580;50.850;4.504;2022-11-04T04:11:30;10.10;99.90
10192;DHT22;17580;50.850;4.504;2022-11-04T04:14:02;10.10;99.90
10192;DHT22;17580;50.850;4.504;2022-11-04T04:16:35;10.10;99.90
10192;DHT22;17580;50.850;4.504;2022-11-04T04:19:06;10.10;99.90
10192;DHT22;17580;50.850;4.504;2022-11-04T04:21:41;10.10;99.90
10192;DHT22;17580;50.850;4.504;2022-11-04T04:24:11;10.10;99.90
10192;DHT22;17580;50.850;4.504;2022-11-04T04:26:58;10.10;99.90
10192;DHT22;17580;50.850;4.504;2022-11-04T04:29:43;10.10;99.90
10192;DHT22;17580;50.850;4.504;2022-11-04T04:32:12;10.20;99.90
10192;DHT22;17580;50.850;4.504;2022-11-04T04:34:40;10.10;99.90
10192;DHT22;17580;50.850;4.504;2022-11-04T04:37:11;10.10;99.90
10192;DHT22;17580;50.850;4.504;2022-11-04T04:39:43;10.10;99.90
10192;DHT22;17580;50.850;4.504;2022-11-04T04:42:30;10.20;99.90
10192;DHT22;17580;50.850;4.504;2022-11-04T04:45:22;10.20;99.90
10192;DHT22;17580;50.850;4.504;2022-11-04T04:47:52;10.10;99.90
10192;DHT22;17580;50.850;4.504;2022-11-04T04:50:21;10.20;99.90
10192;DHT22;17580;50.850;4.504;2022-11-04T04:52:52;10.20;99.90
10192;DHT22;17580;50.850;4.504;2022-11-04T04:55:20;10.10;99.90
10192;DHT22;17580;50.850;4.504;2022-11-04T04:57:47;10.10;99.90
10192;DHT22;17580;50.850;4.504;2022-11-04T05:00:16;10.20;99.90
10192;DHT22;17580;50.850;4.504;2022-11-04T05:02:44;10.10;99.90
10192;DHT22;17580;50.850;4.504;2022-11-04T05:05:12;10.20;99.90
10192;DHT22;17580;50.850;4.504;2022-11-04T05:07:41;10.20;99.90
10192;DHT22;17580;50.850;4.504;2022-11-04T05:10:10;10.20;99.90
10192;DHT22;17580;50.850;4.504;2022-11-04T05:12:38;10.20;99.90
10192;DHT22;17580;50.850;4.504;2022-11-04T05:15:23;10.20;99.90
10192;DHT22;17580;50.850;4.504;2022-11-04T05:17:53;10.20;99.90
10192;DHT22;17580;50.850;4.504;2022-11-04T05:20:22;10.30;99.90
10192;DHT22;17580;50.850;4.504;2022-11-04T05:22:49;10.40;99.90
10192;DHT22;17580;50.850;4.504;2022-11-04T05:25:16;10.40;99.90
10192;DHT22;17580;50.850;4.504;2022-11-04T05:27:43;10.40;99.90
10192;DHT22;17580;50.850;4.504;2022-11-04T05:30:10;10.30;99.90
10192;DHT22;17580;50.850;4.504;2022-11-04T05:32:37;10.30;99.90
10192;DHT22;17580;50.850;4.504;2022-11-04T05:35:05;10.40;99.90
10192;DHT22;17580;50.850;4.504;2022-11-04T05:37:33;10.40;99.90
10192;DHT22;17580;50.850;4.504;2022-11-04T05:40:00;10.40;99.90
10192;DHT22;17580;50.850;4.504;2022-11-04T05:42:27;10.40;99.90
10192;DHT22;17580;50.850;4.504;2022-11-04T05:44:55;10.40;99.90
10192;DHT22;17580;50.850;4.504;2022-11-04T05:47:22;10.40;99.90
10192;DHT22;17580;50.850;4.504;2022-11-04T05:49:49;10.40;99.90
10192;DHT22;17580;50.850;4.504;2022-11-04T05:52:15;10.40;99.90
10192;DHT22;17580;50.850;4.504;2022-11-04T05:54:44;10.40;99.90
10192;DHT22;17580;50.850;4.504;2022-11-04T05:57:12;10.50;99.90
10192;DHT22;17580;50.850;4.504;2022-11-04T05:59:38;10.50;99.90
10192;DHT22;17580;50.850;4.504;2022-11-04T06:02:05;10.50;99.90
10192;DHT22;17580;50.850;4.504;2022-11-04T06:04:32;10.40;99.90
10192;DHT22;17580;50.850;4.504;2022-11-04T06:06:59;10.40;99.90
10192;DHT22;17580;50.850;4.504;2022-11-04T06:09:26;10.40;99.90
10192;DHT22;17580;50.850;4.504;2022-11-04T06:12:07;10.30;99.90
10192;DHT22;17580;50.850;4.504;2022-11-04T06:14:34;10.40;99.90
10192;DHT22;17580;50.850;4.504;2022-11-04T06:17:02;10.40;99.90
10192;DHT22;17580;50.850;4.504;2022-11-04T06:19:29;10.50;99.90
10192;DHT22;17580;50.850;4.504;2022-11-04T06:21:56;10.40;99.90
10192;DHT22;17580;50.850;4.504;2022-11-04T06:24:23;10.40;99.90
10192;DHT22;17580;50.850;4.504;2022-11-04T06:26:50;10.40;99.90
10192;DHT22;17580;50.850;4.504;2022-11-04T06:29:18;10.40;99.90
10192;DHT22;17580;50.850;4.504;2022-11-04T06:31:45;10.40;99.90
10192;DHT22;17580;50.850;4.504;2022-11-04T06:34:12;10.40;99.90
10192;DHT22;17580;50.850;4.504;2022-11-04T06:36:39;10.40;99.90
10192;DHT22;17580;50.850;4.504;2022-11-04T06:39:06;10.50;99.90
10192;DHT22;17580;50.850;4.504;2022-11-04T06:41:33;10.50;99.90
10192;DHT22;17580;50.850;4.504;2022-11-04T06:44:00;10.50;99.90
10192;DHT22;17580;50.850;4.504;2022-11-04T06:46:32;10.50;99.90
10192;DHT22;17580;50.850;4.504;2022-11-04T06:49:00;10.40;99.90
10192;DHT22;17580;50.850;4.504;2022-11-04T06:51:27;10.40;99.90
10192;DHT22;17580;50.850;4.504;2022-11-04T06:53:54;10.40;99.90
10192;DHT22;17580;50.850;4.504;2022-11-04T06:56:21;10.40;99.90
10192;DHT22;17580;50.850;4.504;2022-11-04T06:58:48;10.40;99.90
10192;DHT22;17580;50.850;4.504;2022-11-04T07:01:15;10.40;99.90
10192;DHT22;17580;50.850;4.504;2022-11-04T07:03:47;10.40;99.90
10192;DHT22;17580;50.850;4.504;2022-11-04T07:06:14;10.30;99.90
10192;DHT22;17580;50.850;4.504;2022-11-04T07:08:42;10.30;99.90
10192;DHT22;17580;50.850;4.504;2022-11-04T07:11:09;10.40;99.90
10192;DHT22;17580;50.850;4.504;2022-11-04T07:13:36;10.40;99.90
10192;DHT22;17580;50.850;4.504;2022-11-04T07:16:04;10.40;99.90
10192;DHT22;17580;50.850;4.504;2022-11-04T07:18:31;10.40;99.90
10192;DHT22;17580;50.850;4.504;2022-11-04T07:20:59;10.40;99.90
10192;DHT22;17580;50.850;4.504;2022-11-04T07:23:27;10.40;99.90
10192;DHT22;17580;50.850;4.504;2022-11-04T07:25:58;10.50;99.90
10192;DHT22;17580;50.850;4.504;2022-11-04T07:28:26;10.50;99.90
10192;DHT22;17580;50.850;4.504;2022-11-04T07:30:55;10.50;99.90
10192;DHT22;17580;50.850;4.504;2022-11-04T07:33:22;10.50;99.90
10192;DHT22;17580;50.850;4.504;2022-11-04T07:35:49;10.60;99.90
10192;DHT22;17580;50.850;4.504;2022-11-04T07:38:17;10.70;99.90
10192;DHT22;17580;50.850;4.504;2022-11-04T07:40:44;10.70;99.90
10192;DHT22;17580;50.850;4.504;2022-11-04T07:43:11;10.60;99.90
10192;DHT22;17580;50.850;4.504;2022-11-04T07:45:38;10.60;99.90
10192;DHT22;17580;50.850;4.504;2022-11-04T07:48:06;10.70;99.90
10192;DHT22;17580;50.850;4.504;2022-11-04T07:50:33;10.70;99.90
10192;DHT22;17580;50.850;4.504;2022-11-04T07:53:00;10.70;99.90
10192;DHT22;17580;50.850;4.504;2022-11-04T07:55:29;10.70;99.90
10192;DHT22;17580;50.850;4.504;2022-11-04T07:57:56;10.70;99.90
10192;DHT22;17580;50.850;4.504;2022-11-04T08:00:23;10.70;99.90
10192;DHT22;17580;50.850;4.504;2022-11-04T08:02:49;10.70;99.90
10192;DHT22;17580;50.850;4.504;2022-11-04T08:05:16;10.80;99.90
10192;DHT22;17580;50.850;4.504;2022-11-04T08:07:43;10.90;99.90
10192;DHT22;17580;50.850;4.504;2022-11-04T08:10:10;10.80;99.90
10192;DHT22;17580;50.850;4.504;2022-11-04T08:12:38;10.80;99.90
10192;DHT22;17580;50.850;4.504;2022-11-04T08:15:06;10.80;99.90
10192;DHT22;17580;50.850;4.504;2022-11-04T08:17:33;10.90;99.90
10192;DHT22;17580;50.850;4.504;2022-11-04T08:20:00;10.90;99.90
10192;DHT22;17580;50.850;4.504;2022-11-04T08:22:27;10.90;99.90
10192;DHT22;17580;50.850;4.504;2022-11-04T08:24:54;10.90;99.90
10192;DHT22;17580;50.850;4.504;2022-11-04T08:27:21;10.90;99.90
10192;DHT22;17580;50.850;4.504;2022-11-04T08:29:49;10.90;99.90
10192;DHT22;17580;50.850;4.504;2022-11-04T08:32:16;10.90;99.90
10192;DHT22;17580;50.850;4.504;2022-11-04T08:34:43;10.90;99.90
10192;DHT22;17580;50.850;4.504;2022-11-04T08:37:12;10.90;99.90
10192;DHT22;17580;50.850;4.504;2022-11-04T08:39:41;11.00;99.90
10192;DHT22;17580;50.850;4.504;2022-11-04T08:42:08;10.90;99.90
10192;DHT22;17580;50.850;4.504;2022-11-04T08:44:35;10.90;99.90
10192;DHT22;17580;50.850;4.504;2022-11-04T08:47:05;10.90;99.90
10192;DHT22;17580;50.850;4.504;2022-11-04T08:49:36;10.90;99.90
10192;DHT22;17580;50.850;4.504;2022-11-04T08:52:04;11.00;99.90
10192;DHT22;17580;50.850;4.504;2022-11-04T08:54:31;11.00;99.90
10192;DHT22;17580;50.850;4.504;2022-11-04T08:56:58;11.00;99.90
10192;DHT22;17580;50.850;4.504;2022-11-04T08:59:25;11.10;99.90
10192;DHT22;17580;50.850;4.504;2022-11-04T09:01:52;11.10;99.90
10192;DHT22;17580;50.850;4.504;2022-11-04T09:04:21;11.00;99.90
10192;DHT22;17580;50.850;4.504;2022-11-04T09:06:48;11.00;99.90
10192;DHT22;17580;50.850;4.504;2022-11-04T09:09:17;11.00;99.90
10192;DHT22;17580;50.850;4.504;2022-11-04T09:11:45;11.10;99.90
10192;DHT22;17580;50.850;4.504;2022-11-04T09:14:12;11.10;99.90
10192;DHT22;17580;50.850;4.504;2022-11-04T09:16:40;11.20;99.90
10192;DHT22;17580;50.850;4.504;2022-11-04T09:19:08;11.20;99.90
10192;DHT22;17580;50.850;4.504;2022-11-04T09:21:36;11.20;99.90
10192;DHT22;17580;50.850;4.504;2022-11-04T09:24:03;11.20;99.90
10192;DHT22;17580;50.850;4.504;2022-11-04T09:26:32;11.20;99.90
10192;DHT22;17580;50.850;4.504;2022-11-04T09:28:59;11.20;99.90
10192;DHT22;17580;50.850;4.504;2022-11-04T09:31:28;11.20;99.90
10192;DHT22;17580;50.850;4.504;2022-11-04T09:33:56;11.20;99.90
10192;DHT22;17580;50.850;4.504;2022-11-04T09:36:23;11.30;99.90
10192;DHT22;17580;50.850;4.504;2022-11-04T09:38:51;11.30;99.90
10192;DHT22;17580;50.850;4.504;2022-11-04T09:41:36;11.30;99.90
10192;DHT22;17580;50.850;4.504;2022-11-04T09:44:13;11.30;99.90
10192;DHT22;17580;50.850;4.504;2022-11-04T09:46:43;11.30;99.90
10192;DHT22;17580;50.850;4.504;2022-11-04T09:49:13;11.40;99.90
10192;DHT22;17580;50.850;4.504;2022-11-04T09:51:42;11.40;99.90
10192;DHT22;17580;50.850;4.504;2022-11-04T09:54:17;11.60;99.90
10192;DHT22;17580;50.850;4.504;2022-11-04T09:56:48;11.70;99.90
10192;DHT22;17580;50.850;4.504;2022-11-04T09:59:20;11.90;99.90
10192;DHT22;17580;50.850;4.504;2022-11-04T10:01:55;12.00;99.90
10192;DHT22;17580;50.850;4.504;2022-11-04T10:04:29;12.10;99.90
10192;DHT22;17580;50.850;4.504;2022-11-04T10:07:08;12.10;99.90
10192;DHT22;17580;50.850;4.504;2022-11-04T10:09:57;12.20;99.90
10192;DHT22;17580;50.850;4.504;2022-11-04T10:12:43;12.20;99.90
10192;DHT22;17580;50.850;4.504;2022-11-04T10:15:29;12.30;99.90
10192;DHT22;17580;50.850;4.504;2022-11-04T10:18:06;12.30;99.90
10192;DHT22;17580;50.850;4.504;2022-11-04T10:20:46;12.30;99.90
10192;DHT22;17580;50.850;4.504;2022-11-04T10:23:20;12.40;99.90
10192;DHT22;17580;50.850;4.504;2022-11-04T10:25:57;12.50;99.90
10192;DHT22;17580;50.850;4.504;2022-11-04T10:28:32;12.60;99.90
10192;DHT22;17580;50.850;4.504;2022-11-04T10:31:01;12.80;99.90
10192;DHT22;17580;50.850;4.504;2022-11-04T10:33:32;13.00;99.90
10192;DHT22;17580;50.850;4.504;2022-11-04T10:36:02;13.10;99.90
10192;DHT22;17580;50.850;4.504;2022-11-04T10:38:35;13.00;99.90
10192;DHT22;17580;50.850;4.504;2022-11-04T10:41:17;13.00;99.90
10192;DHT22;17580;50.850;4.504;2022-11-04T10:43:46;12.80;99.90
10192;DHT22;17580;50.850;4.504;2022-11-04T10:46:25;12.60;99.90
10192;DHT22;17580;50.850;4.504;2022-11-04T10:49:01;12.40;99.90
10192;DHT22;17580;50.850;4.504;2022-11-04T10:51:30;12.20;99.90
10192;DHT22;17580;50.850;4.504;2022-11-04T10:53:58;12.20;99.90
10192;DHT22;17580;50.850;4.504;2022-11-04T10:56:34;12.20;99.90
10192;DHT22;17580;50.850;4.504;2022-11-04T10:59:15;12.10;99.90
10192;DHT22;17580;50.850;4.504;2022-11-04T11:01:48;12.10;99.90
10192;DHT22;17580;50.850;4.504;2022-11-04T11:04:25;12.10;99.90
10192;DHT22;17580;50.850;4.504;2022-11-04T11:06:53;12.10;99.90
10192;DHT22;17580;50.850;4.504;2022-11-04T11:09:22;12.10;99.90
10192;DHT22;17580;50.850;4.504;2022-11-04T11:11:56;12.10;99.90
10192;DHT22;17580;50.850;4.504;2022-11-04T11:14:33;12.00;99.90
10192;DHT22;17580;50.850;4.504;2022-11-04T11:17:21;12.10;99.90
10192;DHT22;17580;50.850;4.504;2022-11-04T11:19:53;12.20;99.90
10192;DHT22;17580;50.850;4.504;2022-11-04T11:22:37;12.20;99.90
10192;DHT22;17580;50.850;4.504;2022-11-04T11:25:25;12.20;99.90
10192;DHT22;17580;50.850;4.504;2022-11-04T11:27:56;12.30;99.90
10192;DHT22;17580;50.850;4.504;2022-11-04T11:30:26;12.30;99.90
10192;DHT22;17580;50.850;4.504;2022-11-04T11:32:59;12.30;99.90
10192;DHT22;17580;50.850;4.504;2022-11-04T11:35:31;12.30;99.90
10192;DHT22;17580;50.850;4.504;2022-11-04T11:38:00;12.40;99.90
10192;DHT22;17580;50.850;4.504;2022-11-04T11:40:36;12.50;99.90
10192;DHT22;17580;50.850;4.504;2022-11-04T11:43:05;12.60;99.90
10192;DHT22;17580;50.850;4.504;2022-11-04T11:45:31;12.70;99.90
10192;DHT22;17580;50.850;4.504;2022-11-04T11:47:58;12.80;99.90
10192;DHT22;17580;50.850;4.504;2022-11-04T11:50:27;13.00;99.90
10192;DHT22;17580;50.850;4.504;2022-11-04T11:53:16;13.20;99.90
10192;DHT22;17580;50.850;4.504;2022-11-04T11:55:48;13.30;99.90
10192;DHT22;17580;50.850;4.504;2022-11-04T11:58:25;13.30;99.90
10192;DHT22;17580;50.850;4.504;2022-11-04T12:00:57;13.40;99.90
10192;DHT22;17580;50.850;4.504;2022-11-04T12:03:29;13.50;99.90
10192;DHT22;17580;50.850;4.504;2022-11-04T12:06:16;13.50;99.90
10192;DHT22;17580;50.850;4.504;2022-11-04T12:09:08;13.40;99.90
10192;DHT22;17580;50.850;4.504;2022-11-04T12:11:51;13.30;99.90
10192;DHT22;17580;50.850;4.504;2022-11-04T12:14:27;13.30;99.90
10192;DHT22;17580;50.850;4.504;2022-11-04T12:17:03;13.30;99.90
10192;DHT22;17580;50.850;4.504;2022-11-04T12:19:45;13.20;99.90
10192;DHT22;17580;50.850;4.504;2022-11-04T12:22:17;13.10;99.90
10192;DHT22;17580;50.850;4.504;2022-11-04T12:24:52;13.10;99.90
10192;DHT22;17580;50.850;4.504;2022-11-04T12:27:29;13.00;99.90
10192;DHT22;17580;50.850;4.504;2022-11-04T12:30:06;12.90;99.90
10192;DHT22;17580;50.850;4.504;2022-11-04T12:32:47;12.90;99.90
10192;DHT22;17580;50.850;4.504;2022-11-04T12:35:31;13.00;99.90
10192;DHT22;17580;50.850;4.504;2022-11-04T12:38:10;13.00;99.90
10192;DHT22;17580;50.850;4.504;2022-11-04T12:40:46;12.90;99.90
10192;DHT22;17580;50.850;4.504;2022-11-04T12:43:20;12.60;99.90
10192;DHT22;17580;50.850;4.504;2022-11-04T12:46:03;12.60;99.90
10192;DHT22;17580;50.850;4.504;2022-11-04T12:48:48;12.60;99.90
10192;DHT22;17580;50.850;4.504;2022-11-04T12:51:25;12.80;99.90
10192;DHT22;17580;50.850;4.504;2022-11-04T12:57:10;13.40;99.90
10192;DHT22;17580;50.850;4.504;2022-11-04T13:00:02;13.90;99.90
10192;DHT22;17580;50.850;4.504;2022-11-04T13:02:36;14.30;99.90
10192;DHT22;17580;50.850;4.504;2022-11-04T13:05:07;14.30;99.90
10192;DHT22;17580;50.850;4.504;2022-11-04T13:07:46;14.00;99.90
10192;DHT22;17580;50.850;4.504;2022-11-04T13:10:19;13.90;99.90
10192;DHT22;17580;50.850;4.504;2022-11-04T13:12:49;13.80;99.90
10192;DHT22;17580;50.850;4.504;2022-11-04T13:15:20;13.80;99.90
10192;DHT22;17580;50.850;4.504;2022-11-04T13:17:52;13.60;99.90
10192;DHT22;17580;50.850;4.504;2022-11-04T13:20:28;13.50;99.90
10192;DHT22;17580;50.850;4.504;2022-11-04T13:23:02;13.40;99.90
10192;DHT22;17580;50.850;4.504;2022-11-04T13:25:33;13.20;99.90
10192;DHT22;17580;50.850;4.504;2022-11-04T13:28:03;13.00;99.90
10192;DHT22;17580;50.850;4.504;2022-11-04T13:30:34;13.00;99.90
10192;DHT22;17580;50.850;4.504;2022-11-04T13:33:10;12.80;99.90
10192;DHT22;17580;50.850;4.504;2022-11-04T13:35:46;12.90;99.90
10192;DHT22;17580;50.850;4.504;2022-11-04T13:38:19;12.80;99.90
10192;DHT22;17580;50.850;4.504;2022-11-04T13:41:00;12.90;99.90
10192;DHT22;17580;50.850;4.504;2022-11-04T13:43:33;13.00;99.90
10192;DHT22;17580;50.850;4.504;2022-11-04T13:46:14;12.90;99.90
10192;DHT22;17580;50.850;4.504;2022-11-04T13:48:56;12.80;99.90
10192;DHT22;17580;50.850;4.504;2022-11-04T13:51:36;12.80;99.90
10192;DHT22;17580;50.850;4.504;2022-11-04T13:54:05;12.90;99.90
10192;DHT22;17580;50.850;4.504;2022-11-04T13:56:34;12.90;99.90
10192;DHT22;17580;50.850;4.504;2022-11-04T13:59:05;13.00;99.90
10192;DHT22;17580;50.850;4.504;2022-11-04T14:01:33;12.90;99.90
10192;DHT22;17580;50.850;4.504;2022-11-04T14:04:17;12.90;99.90
10192;DHT22;17580;50.850;4.504;2022-11-04T14:06:51;12.90;99.90
10192;DHT22;17580;50.850;4.504;2022-11-04T14:12:29;12.80;99.90
10192;DHT22;17580;50.850;4.504;2022-11-04T14:15:07;12.90;99.90
10192;DHT22;17580;50.850;4.504;2022-11-04T14:18:02;13.10;99.90
10192;DHT22;17580;50.850;4.504;2022-11-04T14:20:32;13.10;99.90
10192;DHT22;17580;50.850;4.504;2022-11-04T14:23:03;13.20;99.90
10192;DHT22;17580;50.850;4.504;2022-11-04T14:25:35;13.10;99.90
10192;DHT22;17580;50.850;4.504;2022-11-04T14:28:17;13.10;99.90
10192;DHT22;17580;50.850;4.504;2022-11-04T14:30:50;13.00;99.90
10192;DHT22;17580;50.850;4.504;2022-11-04T14:33:35;13.00;99.90
10192;DHT22;17580;50.850;4.504;2022-11-04T14:36:24;13.00;99.90
10192;DHT22;17580;50.850;4.504;2022-11-04T14:38:56;12.80;99.90
10192;DHT22;17580;50.850;4.504;2022-11-04T14:41:31;12.80;99.90
10192;DHT22;17580;50.850;4.504;2022-11-04T14:44:19;12.80;99.90
10192;DHT22;17580;50.850;4.504;2022-11-04T14:46:49;12.70;99.90
10192;DHT22;17580;50.850;4.504;2022-11-04T14:49:34;12.70;99.90
10192;DHT22;17580;50.850;4.504;2022-11-04T14:52:05;12.80;99.90
10192;DHT22;17580;50.850;4.504;2022-11-04T14:54:39;12.80;99.90
10192;DHT22;17580;50.850;4.504;2022-11-04T14:57:08;12.80;99.90
10192;DHT22;17580;50.850;4.504;2022-11-04T14:59:38;12.70;99.90
10192;DHT22;17580;50.850;4.504;2022-11-04T15:02:11;12.70;99.90
10192;DHT22;17580;50.850;4.504;2022-11-04T15:04:46;12.60;99.90
10192;DHT22;17580;50.850;4.504;2022-11-04T15:07:25;12.40;99.90
10192;DHT22;17580;50.850;4.504;2022-11-04T15:09:52;12.30;99.90
10192;DHT22;17580;50.850;4.504;2022-11-04T15:12:19;12.20;99.90
10192;DHT22;17580;50.850;4.504;2022-11-04T15:15:26;12.20;99.90
10192;DHT22;17580;50.850;4.504;2022-11-04T15:17:57;12.10;99.90
10192;DHT22;17580;50.850;4.504;2022-11-04T15:20:26;12.00;99.90
10192;DHT22;17580;50.850;4.504;2022-11-04T15:22:57;12.00;99.90
10192;DHT22;17580;50.850;4.504;2022-11-04T15:25:24;11.90;99.90
10192;DHT22;17580;50.850;4.504;2022-11-04T15:27:51;11.80;99.90
10192;DHT22;17580;50.850;4.504;2022-11-04T15:30:21;11.70;99.90
10192;DHT22;17580;50.850;4.504;2022-11-04T15:32:53;11.60;99.90
10192;DHT22;17580;50.850;4.504;2022-11-04T15:35:20;11.60;99.90
10192;DHT22;17580;50.850;4.504;2022-11-04T15:37:47;11.50;99.90
10192;DHT22;17580;50.850;4.504;2022-11-04T15:40:18;11.60;99.90
10192;DHT22;17580;50.850;4.504;2022-11-04T15:42:45;11.60;99.90
10192;DHT22;17580;50.850;4.504;2022-11-04T15:45:33;11.50;99.90
10192;DHT22;17580;50.850;4.504;2022-11-04T15:48:21;11.40;99.90
10192;DHT22;17580;50.850;4.504;2022-11-04T15:50:52;11.40;99.90
10192;DHT22;17580;50.850;4.504;2022-11-04T15:53:19;11.30;99.90
10192;DHT22;17580;50.850;4.504;2022-11-04T15:55:47;11.30;99.90
10192;DHT22;17580;50.850;4.504;2022-11-04T15:58:15;11.30;99.90
10192;DHT22;17580;50.850;4.504;2022-11-04T16:00:44;11.20;99.90
10192;DHT22;17580;50.850;4.504;2022-11-04T16:03:17;11.20;99.90
10192;DHT22;17580;50.850;4.504;2022-11-04T16:05:59;11.20;99.90
10192;DHT22;17580;50.850;4.504;2022-11-04T16:08:28;11.20;99.90
10192;DHT22;17580;50.850;4.504;2022-11-04T16:11:10;11.20;99.90
10192;DHT22;17580;50.850;4.504;2022-11-04T16:13:38;11.10;99.90